sensor_id;sensor_type;location;lat;lon;timestamp;P1;durP1;ratioP1;P2;durP2;ratioP2
6665;SDS011;3369;49.906;8.598;2022-12-20T00:01:55;22.77;;;15.37;;
6665;SDS011;3369;49.906;8.598;2022-12-20T00:04:21;25.10;;;16.87;;
6665;SDS011;3369;49.906;8.598;2022-12-20T00:06:47;23.97;;;16.20;;
6665;SDS011;3369;49.906;8.598;2022-12-20T00:09:12;28.50;;;17.60;;
6665;SDS011;3369;49.906;8.598;2022-12-20T00:11:39;30.10;;;17.93;;
6665;SDS011;3369;49.906;8.598;2022-12-20T00:14:06;22.63;;;15.90;;
6665;SDS011;3369;49.906;8.598;2022-12-20T00:16:32;28.50;;;17.90;;
6665;SDS011;3369;49.906;8.598;2022-12-20T00:19:00;27.57;;;17.63;;
6665;SDS011;3369;49.906;8.598;2022-12-20T00:21:28;24.40;;;16.70;;
6665;SDS011;3369;49.906;8.598;2022-12-20T00:23:54;30.60;;;17.43;;
6665;SDS011;3369;49.906;8.598;2022-12-20T00:26:22;27.03;;;17.70;;
6665;SDS011;3369;49.906;8.598;2022-12-20T00:28:49;25.70;;;16.17;;
6665;SDS011;3369;49.906;8.598;2022-12-20T00:31:15;23.07;;;15.10;;
6665;SDS011;3369;49.906;8.598;2022-12-20T00:33:44;25.87;;;15.93;;
6665;SDS011;3369;49.906;8.598;2022-12-20T00:36:11;25.50;;;15.27;;
6665;SDS011;3369;49.906;8.598;2022-12-20T00:38:37;22.20;;;14.97;;
6665;SDS011;3369;49.906;8.598;2022-12-20T00:41:13;22.90;;;15.20;;
6665;SDS011;3369;49.906;8.598;2022-12-20T00:43:40;21.93;;;15.07;;
6665;SDS011;3369;49.906;8.598;2022-12-20T00:46:06;25.40;;;15.93;;
6665;SDS011;3369;49.906;8.598;2022-12-20T00:48:33;25.20;;;16.23;;
6665;SDS011;3369;49.906;8.598;2022-12-20T00:50:59;23.60;;;16.07;;
6665;SDS011;3369;49.906;8.598;2022-12-20T00:53:30;25.83;;;16.37;;
6665;SDS011;3369;49.906;8.598;2022-12-20T00:55:56;21.53;;;14.43;;
6665;SDS011;3369;49.906;8.598;2022-12-20T00:58:22;25.60;;;15.93;;
6665;SDS011;3369;49.906;8.598;2022-12-20T01:00:48;26.37;;;16.40;;
6665;SDS011;3369;49.906;8.598;2022-12-20T01:03:14;26.13;;;15.57;;
6665;SDS011;3369;49.906;8.598;2022-12-20T01:05:48;24.43;;;16.20;;
6665;SDS011;3369;49.906;8.598;2022-12-20T01:08:17;23.57;;;14.87;;
6665;SDS011;3369;49.906;8.598;2022-12-20T01:10:43;26.37;;;16.63;;
6665;SDS011;3369;49.906;8.598;2022-12-20T01:13:09;25.47;;;15.37;;
6665;SDS011;3369;49.906;8.598;2022-12-20T01:15:35;26.87;;;16.73;;
6665;SDS011;3369;49.906;8.598;2022-12-20T01:18:00;22.77;;;15.37;;
6665;SDS011;3369;49.906;8.598;2022-12-20T01:20:26;29.17;;;17.73;;
6665;SDS011;3369;49.906;8.598;2022-12-20T01:22:51;22.87;;;15.47;;
6665;SDS011;3369;49.906;8.598;2022-12-20T01:25:17;27.23;;;17.27;;
6665;SDS011;3369;49.906;8.598;2022-12-20T01:27:43;27.63;;;16.73;;
6665;SDS011;3369;49.906;8.598;2022-12-20T01:30:08;29.53;;;18.50;;
6665;SDS011;3369;49.906;8.598;2022-12-20T01:32:35;24.87;;;16.10;;
6665;SDS011;3369;49.906;8.598;2022-12-20T01:35:00;25.60;;;16.83;;
6665;SDS011;3369;49.906;8.598;2022-12-20T01:37:26;24.87;;;16.00;;
6665;SDS011;3369;49.906;8.598;2022-12-20T01:39:52;24.37;;;15.73;;
6665;SDS011;3369;49.906;8.598;2022-12-20T01:42:17;23.70;;;15.43;;
6665;SDS011;3369;49.906;8.598;2022-12-20T01:47:09;20.63;;;13.93;;
6665;SDS011;3369;49.906;8.598;2022-12-20T01:49:41;23.73;;;15.23;;
6665;SDS011;3369;49.906;8.598;2022-12-20T01:52:12;23.17;;;14.73;;
6665;SDS011;3369;49.906;8.598;2022-12-20T01:54:50;20.97;;;14.53;;
6665;SDS011;3369;49.906;8.598;2022-12-20T01:57:56;23.20;;;16.07;;
6665;SDS011;3369;49.906;8.598;2022-12-20T02:00:25;19.27;;;12.63;;
6665;SDS011;3369;49.906;8.598;2022-12-20T02:02:51;20.83;;;13.53;;
6665;SDS011;3369;49.906;8.598;2022-12-20T02:05:18;18.83;;;12.93;;
6665;SDS011;3369;49.906;8.598;2022-12-20T02:07:47;19.10;;;12.50;;
6665;SDS011;3369;49.906;8.598;2022-12-20T02:10:15;16.97;;;12.60;;
6665;SDS011;3369;49.906;8.598;2022-12-20T02:12:43;17.53;;;12.23;;
6665;SDS011;3369;49.906;8.598;2022-12-20T02:39:21;24.80;;;15.53;;
6665;SDS011;3369;49.906;8.598;2022-12-20T02:41:51;29.47;;;18.07;;
6665;SDS011;3369;49.906;8.598;2022-12-20T02:44:30;26.03;;;15.87;;
6665;SDS011;3369;49.906;8.598;2022-12-20T02:47:18;26.50;;;15.83;;
6665;SDS011;3369;49.906;8.598;2022-12-20T02:49:48;24.13;;;16.20;;
6665;SDS011;3369;49.906;8.598;2022-12-20T02:52:15;25.40;;;15.53;;
6665;SDS011;3369;49.906;8.598;2022-12-20T02:54:43;23.33;;;15.27;;
6665;SDS011;3369;49.906;8.598;2022-12-20T02:57:21;22.60;;;16.10;;
6665;SDS011;3369;49.906;8.598;2022-12-20T03:02:26;24.10;;;15.60;;
6665;SDS011;3369;49.906;8.598;2022-12-20T03:04:53;22.23;;;14.57;;
6665;SDS011;3369;49.906;8.598;2022-12-20T03:07:19;20.17;;;14.33;;
6665;SDS011;3369;49.906;8.598;2022-12-20T03:09:45;22.77;;;15.40;;
6665;SDS011;3369;49.906;8.598;2022-12-20T03:12:11;23.77;;;15.30;;
6665;SDS011;3369;49.906;8.598;2022-12-20T03:14:39;22.00;;;14.80;;
6665;SDS011;3369;49.906;8.598;2022-12-20T03:17:06;26.93;;;15.43;;
6665;SDS011;3369;49.906;8.598;2022-12-20T03:19:32;22.77;;;15.33;;
6665;SDS011;3369;49.906;8.598;2022-12-20T03:21:59;20.90;;;15.33;;
6665;SDS011;3369;49.906;8.598;2022-12-20T03:24:25;23.27;;;14.23;;
6665;SDS011;3369;49.906;8.598;2022-12-20T03:26:50;23.23;;;14.17;;
6665;SDS011;3369;49.906;8.598;2022-12-20T03:29:16;24.63;;;15.73;;
6665;SDS011;3369;49.906;8.598;2022-12-20T03:31:42;22.77;;;14.73;;
6665;SDS011;3369;49.906;8.598;2022-12-20T03:34:07;20.70;;;14.07;;
6665;SDS011;3369;49.906;8.598;2022-12-20T03:36:33;20.53;;;14.47;;
6665;SDS011;3369;49.906;8.598;2022-12-20T03:38:59;23.83;;;15.60;;
6665;SDS011;3369;49.906;8.598;2022-12-20T03:41:25;24.43;;;15.73;;
6665;SDS011;3369;49.906;8.598;2022-12-20T03:43:51;23.80;;;14.47;;
6665;SDS011;3369;49.906;8.598;2022-12-20T03:46:17;21.37;;;14.37;;
6665;SDS011;3369;49.906;8.598;2022-12-20T03:48:43;23.53;;;15.10;;
6665;SDS011;3369;49.906;8.598;2022-12-20T03:51:09;23.57;;;15.77;;
6665;SDS011;3369;49.906;8.598;2022-12-20T03:53:35;23.37;;;14.93;;
6665;SDS011;3369;49.906;8.598;2022-12-20T03:56:00;30.63;;;19.30;;
6665;SDS011;3369;49.906;8.598;2022-12-20T03:58:26;22.87;;;15.23;;
6665;SDS011;3369;49.906;8.598;2022-12-20T04:00:51;25.40;;;16.57;;
6665;SDS011;3369;49.906;8.598;2022-12-20T04:03:17;25.97;;;16.97;;
6665;SDS011;3369;49.906;8.598;2022-12-20T04:05:43;24.70;;;17.43;;
6665;SDS011;3369;49.906;8.598;2022-12-20T04:08:08;24.73;;;16.50;;
6665;SDS011;3369;49.906;8.598;2022-12-20T04:10:34;23.63;;;16.30;;
6665;SDS011;3369;49.906;8.598;2022-12-20T04:13:22;26.30;;;16.30;;
6665;SDS011;3369;49.906;8.598;2022-12-20T04:15:48;26.10;;;16.90;;
6665;SDS011;3369;49.906;8.598;2022-12-20T04:18:13;27.17;;;17.20;;
6665;SDS011;3369;49.906;8.598;2022-12-20T04:20:39;28.63;;;16.43;;
6665;SDS011;3369;49.906;8.598;2022-12-20T04:23:04;25.20;;;17.03;;
6665;SDS011;3369;49.906;8.598;2022-12-20T04:25:30;25.17;;;15.90;;
6665;SDS011;3369;49.906;8.598;2022-12-20T04:27:56;25.70;;;16.47;;
6665;SDS011;3369;49.906;8.598;2022-12-20T04:30:21;23.57;;;15.97;;
6665;SDS011;3369;49.906;8.598;2022-12-20T04:32:47;23.27;;;14.97;;
6665;SDS011;3369;49.906;8.598;2022-12-20T04:35:12;25.80;;;16.63;;
6665;SDS011;3369;49.906;8.598;2022-12-20T04:37:38;23.63;;;15.23;;
6665;SDS011;3369;49.906;8.598;2022-12-20T04:40:04;21.70;;;15.07;;
6665;SDS011;3369;49.906;8.598;2022-12-20T04:42:31;21.60;;;15.40;;
6665;SDS011;3369;49.906;8.598;2022-12-20T04:44:56;20.50;;;14.73;;
6665;SDS011;3369;49.906;8.598;2022-12-20T04:47:22;19.40;;;13.90;;
6665;SDS011;3369;49.906;8.598;2022-12-20T04:49:47;20.77;;;14.00;;
6665;SDS011;3369;49.906;8.598;2022-12-20T04:52:13;23.53;;;15.07;;
6665;SDS011;3369;49.906;8.598;2022-12-20T04:54:57;21.13;;;13.97;;
6665;SDS011;3369;49.906;8.598;2022-12-20T04:57:23;22.60;;;15.67;;
6665;SDS011;3369;49.906;8.598;2022-12-20T04:59:48;22.47;;;14.03;;
6665;SDS011;3369;49.906;8.598;2022-12-20T05:02:14;19.30;;;13.93;;
6665;SDS011;3369;49.906;8.598;2022-12-20T05:04:40;19.03;;;13.23;;
6665;SDS011;3369;49.906;8.598;2022-12-20T05:07:05;20.37;;;13.60;;
6665;SDS011;3369;49.906;8.598;2022-12-20T05:09:31;20.60;;;14.43;;
6665;SDS011;3369;49.906;8.598;2022-12-20T05:11:56;21.90;;;14.77;;
6665;SDS011;3369;49.906;8.598;2022-12-20T05:14:22;19.90;;;13.87;;
6665;SDS011;3369;49.906;8.598;2022-12-20T05:16:47;21.83;;;14.47;;
6665;SDS011;3369;49.906;8.598;2022-12-20T05:19:13;21.53;;;14.47;;
6665;SDS011;3369;49.906;8.598;2022-12-20T05:21:39;23.40;;;16.23;;
6665;SDS011;3369;49.906;8.598;2022-12-20T05:24:23;25.50;;;16.90;;
6665;SDS011;3369;49.906;8.598;2022-12-20T05:27:07;26.23;;;16.77;;
6665;SDS011;3369;49.906;8.598;2022-12-20T05:29:32;25.20;;;16.07;;
6665;SDS011;3369;49.906;8.598;2022-12-20T05:31:58;25.60;;;16.80;;
6665;SDS011;3369;49.906;8.598;2022-12-20T05:34:23;22.87;;;15.27;;
6665;SDS011;3369;49.906;8.598;2022-12-20T05:36:49;20.93;;;15.03;;
6665;SDS011;3369;49.906;8.598;2022-12-20T05:39:15;19.53;;;13.73;;
6665;SDS011;3369;49.906;8.598;2022-12-20T05:41:41;21.10;;;13.47;;
6665;SDS011;3369;49.906;8.598;2022-12-20T05:44:06;19.50;;;14.00;;
6665;SDS011;3369;49.906;8.598;2022-12-20T05:46:32;21.93;;;14.03;;
6665;SDS011;3369;49.906;8.598;2022-12-20T05:48:58;23.77;;;14.53;;
6665;SDS011;3369;49.906;8.598;2022-12-20T05:51:23;22.17;;;13.70;;
6665;SDS011;3369;49.906;8.598;2022-12-20T05:53:49;23.80;;;15.77;;
6665;SDS011;3369;49.906;8.598;2022-12-20T05:56:15;19.50;;;13.80;;
6665;SDS011;3369;49.906;8.598;2022-12-20T05:58:41;20.93;;;14.30;;
6665;SDS011;3369;49.906;8.598;2022-12-20T06:01:07;18.83;;;13.67;;
6665;SDS011;3369;49.906;8.598;2022-12-20T06:03:33;23.97;;;14.60;;
6665;SDS011;3369;49.906;8.598;2022-12-20T06:05:58;24.43;;;15.67;;
6665;SDS011;3369;49.906;8.598;2022-12-20T06:08:24;21.73;;;14.80;;
6665;SDS011;3369;49.906;8.598;2022-12-20T06:10:50;19.70;;;13.27;;
6665;SDS011;3369;49.906;8.598;2022-12-20T06:13:16;20.13;;;13.13;;
6665;SDS011;3369;49.906;8.598;2022-12-20T06:15:42;18.83;;;12.53;;
6665;SDS011;3369;49.906;8.598;2022-12-20T06:18:07;21.03;;;13.77;;
6665;SDS011;3369;49.906;8.598;2022-12-20T06:20:34;20.87;;;13.63;;
6665;SDS011;3369;49.906;8.598;2022-12-20T06:22:59;19.93;;;13.80;;
6665;SDS011;3369;49.906;8.598;2022-12-20T06:25:26;21.40;;;14.47;;
6665;SDS011;3369;49.906;8.598;2022-12-20T06:27:52;28.73;;;18.43;;
6665;SDS011;3369;49.906;8.598;2022-12-20T06:30:18;28.60;;;18.70;;
6665;SDS011;3369;49.906;8.598;2022-12-20T06:32:44;30.87;;;20.40;;
6665;SDS011;3369;49.906;8.598;2022-12-20T06:35:10;31.47;;;20.00;;
6665;SDS011;3369;49.906;8.598;2022-12-20T06:37:36;28.70;;;19.83;;
6665;SDS011;3369;49.906;8.598;2022-12-20T06:40:03;25.40;;;16.90;;
6665;SDS011;3369;49.906;8.598;2022-12-20T06:42:30;24.17;;;17.50;;
6665;SDS011;3369;49.906;8.598;2022-12-20T06:44:55;24.40;;;16.17;;
6665;SDS011;3369;49.906;8.598;2022-12-20T06:47:21;22.13;;;14.67;;
6665;SDS011;3369;49.906;8.598;2022-12-20T06:49:46;22.97;;;15.43;;
6665;SDS011;3369;49.906;8.598;2022-12-20T06:52:12;20.63;;;14.93;;
6665;SDS011;3369;49.906;8.598;2022-12-20T06:54:38;23.70;;;16.13;;
6665;SDS011;3369;49.906;8.598;2022-12-20T06:57:03;24.93;;;16.00;;
6665;SDS011;3369;49.906;8.598;2022-12-20T06:59:30;21.40;;;15.10;;
6665;SDS011;3369;49.906;8.598;2022-12-20T07:01:56;20.33;;;14.17;;
6665;SDS011;3369;49.906;8.598;2022-12-20T07:04:22;20.30;;;14.37;;
6665;SDS011;3369;49.906;8.598;2022-12-20T07:06:47;20.57;;;14.17;;
6665;SDS011;3369;49.906;8.598;2022-12-20T07:09:13;19.80;;;13.30;;
6665;SDS011;3369;49.906;8.598;2022-12-20T07:11:38;20.00;;;13.87;;
6665;SDS011;3369;49.906;8.598;2022-12-20T07:14:04;17.53;;;12.83;;
6665;SDS011;3369;49.906;8.598;2022-12-20T07:16:30;17.87;;;13.10;;
6665;SDS011;3369;49.906;8.598;2022-12-20T07:18:56;19.73;;;12.80;;
6665;SDS011;3369;49.906;8.598;2022-12-20T07:21:22;19.47;;;13.00;;
6665;SDS011;3369;49.906;8.598;2022-12-20T07:23:47;21.67;;;14.50;;
6665;SDS011;3369;49.906;8.598;2022-12-20T07:26:13;20.07;;;13.60;;
6665;SDS011;3369;49.906;8.598;2022-12-20T07:28:40;18.40;;;13.07;;
6665;SDS011;3369;49.906;8.598;2022-12-20T07:31:06;19.87;;;13.83;;
6665;SDS011;3369;49.906;8.598;2022-12-20T07:33:32;20.50;;;14.77;;
6665;SDS011;3369;49.906;8.598;2022-12-20T07:36:02;18.77;;;13.87;;
6665;SDS011;3369;49.906;8.598;2022-12-20T07:38:33;23.30;;;14.67;;
6665;SDS011;3369;49.906;8.598;2022-12-20T07:41:00;22.77;;;15.10;;
6665;SDS011;3369;49.906;8.598;2022-12-20T07:43:32;23.07;;;14.50;;
6665;SDS011;3369;49.906;8.598;2022-12-20T07:45:58;22.20;;;15.30;;
6665;SDS011;3369;49.906;8.598;2022-12-20T07:48:24;23.33;;;15.37;;
6665;SDS011;3369;49.906;8.598;2022-12-20T07:50:52;20.50;;;14.40;;
6665;SDS011;3369;49.906;8.598;2022-12-20T07:53:23;20.20;;;13.03;;
6665;SDS011;3369;49.906;8.598;2022-12-20T07:55:50;20.47;;;13.90;;
6665;SDS011;3369;49.906;8.598;2022-12-20T07:58:16;22.03;;;14.90;;
6665;SDS011;3369;49.906;8.598;2022-12-20T08:00:43;21.07;;;15.23;;
6665;SDS011;3369;49.906;8.598;2022-12-20T08:03:14;23.70;;;15.70;;
6665;SDS011;3369;49.906;8.598;2022-12-20T08:05:48;23.63;;;16.27;;
6665;SDS011;3369;49.906;8.598;2022-12-20T08:08:17;22.13;;;15.50;;
6665;SDS011;3369;49.906;8.598;2022-12-20T08:10:44;25.70;;;16.77;;
6665;SDS011;3369;49.906;8.598;2022-12-20T08:13:10;26.60;;;16.77;;
6665;SDS011;3369;49.906;8.598;2022-12-20T08:15:36;26.40;;;16.53;;
6665;SDS011;3369;49.906;8.598;2022-12-20T08:18:02;21.70;;;16.30;;
6665;SDS011;3369;49.906;8.598;2022-12-20T08:20:30;25.57;;;15.70;;
6665;SDS011;3369;49.906;8.598;2022-12-20T08:22:56;25.40;;;16.43;;
6665;SDS011;3369;49.906;8.598;2022-12-20T08:25:22;23.57;;;15.60;;
6665;SDS011;3369;49.906;8.598;2022-12-20T08:27:47;22.67;;;15.83;;
6665;SDS011;3369;49.906;8.598;2022-12-20T08:30:13;22.37;;;15.37;;
6665;SDS011;3369;49.906;8.598;2022-12-20T08:32:39;23.07;;;16.10;;
6665;SDS011;3369;49.906;8.598;2022-12-20T08:35:05;20.10;;;14.83;;
6665;SDS011;3369;49.906;8.598;2022-12-20T08:37:31;20.53;;;14.40;;
6665;SDS011;3369;49.906;8.598;2022-12-20T08:39:57;22.27;;;15.40;;
6665;SDS011;3369;49.906;8.598;2022-12-20T08:42:22;20.87;;;14.93;;
6665;SDS011;3369;49.906;8.598;2022-12-20T08:44:48;20.80;;;14.33;;
6665;SDS011;3369;49.906;8.598;2022-12-20T08:47:14;19.17;;;14.47;;
6665;SDS011;3369;49.906;8.598;2022-12-20T08:49:39;22.77;;;15.60;;
6665;SDS011;3369;49.906;8.598;2022-12-20T08:52:05;19.73;;;14.43;;
6665;SDS011;3369;49.906;8.598;2022-12-20T08:54:30;22.60;;;15.83;;
6665;SDS011;3369;49.906;8.598;2022-12-20T08:56:56;22.40;;;15.30;;
6665;SDS011;3369;49.906;8.598;2022-12-20T08:59:22;21.20;;;16.03;;
6665;SDS011;3369;49.906;8.598;2022-12-20T09:01:47;21.70;;;15.47;;
6665;SDS011;3369;49.906;8.598;2022-12-20T09:04:14;18.10;;;14.07;;
6665;SDS011;3369;49.906;8.598;2022-12-20T09:06:40;17.50;;;13.23;;
6665;SDS011;3369;49.906;8.598;2022-12-20T09:09:05;16.67;;;12.87;;
6665;SDS011;3369;49.906;8.598;2022-12-20T09:11:32;19.87;;;13.17;;
6665;SDS011;3369;49.906;8.598;2022-12-20T09:13:57;19.23;;;13.57;;
6665;SDS011;3369;49.906;8.598;2022-12-20T09:16:27;19.57;;;13.93;;
6665;SDS011;3369;49.906;8.598;2022-12-20T09:18:55;17.67;;;13.43;;
6665;SDS011;3369;49.906;8.598;2022-12-20T09:21:22;18.37;;;13.63;;
6665;SDS011;3369;49.906;8.598;2022-12-20T09:23:49;20.33;;;14.17;;
6665;SDS011;3369;49.906;8.598;2022-12-20T09:26:16;23.90;;;16.10;;
6665;SDS011;3369;49.906;8.598;2022-12-20T09:28:43;23.77;;;16.77;;
6665;SDS011;3369;49.906;8.598;2022-12-20T09:31:11;25.80;;;17.00;;
6665;SDS011;3369;49.906;8.598;2022-12-20T09:33:39;21.27;;;15.13;;
6665;SDS011;3369;49.906;8.598;2022-12-20T09:36:05;22.33;;;15.37;;
6665;SDS011;3369;49.906;8.598;2022-12-20T09:38:31;24.00;;;15.10;;
6665;SDS011;3369;49.906;8.598;2022-12-20T09:40:58;22.87;;;15.73;;
6665;SDS011;3369;49.906;8.598;2022-12-20T09:43:28;25.67;;;17.23;;
6665;SDS011;3369;49.906;8.598;2022-12-20T09:45:57;24.47;;;15.30;;
6665;SDS011;3369;49.906;8.598;2022-12-20T09:48:25;19.13;;;14.63;;
6665;SDS011;3369;49.906;8.598;2022-12-20T09:59:36;21.47;;;14.47;;
6665;SDS011;3369;49.906;8.598;2022-12-20T10:02:12;20.47;;;14.63;;
6665;SDS011;3369;49.906;8.598;2022-12-20T10:04:45;20.77;;;14.23;;
6665;SDS011;3369;49.906;8.598;2022-12-20T10:09:56;22.30;;;15.63;;
6665;SDS011;3369;49.906;8.598;2022-12-20T10:15:51;20.93;;;14.23;;
6665;SDS011;3369;49.906;8.598;2022-12-20T10:18:32;21.00;;;14.37;;
6665;SDS011;3369;49.906;8.598;2022-12-20T10:24:01;16.80;;;12.40;;
6665;SDS011;3369;49.906;8.598;2022-12-20T10:26:30;19.13;;;13.07;;
6665;SDS011;3369;49.906;8.598;2022-12-20T10:28:57;17.17;;;12.60;;
6665;SDS011;3369;49.906;8.598;2022-12-20T10:31:23;18.93;;;12.83;;
6665;SDS011;3369;49.906;8.598;2022-12-20T10:33:49;13.13;;;11.33;;
6665;SDS011;3369;49.906;8.598;2022-12-20T10:38:58;18.03;;;12.27;;
6665;SDS011;3369;49.906;8.598;2022-12-20T10:41:28;15.10;;;11.30;;
6665;SDS011;3369;49.906;8.598;2022-12-20T10:44:00;15.67;;;12.03;;
6665;SDS011;3369;49.906;8.598;2022-12-20T10:46:39;24.90;;;17.33;;
6665;SDS011;3369;49.906;8.598;2022-12-20T10:49:21;25.63;;;17.50;;
6665;SDS011;3369;49.906;8.598;2022-12-20T10:51:54;20.63;;;14.27;;
6665;SDS011;3369;49.906;8.598;2022-12-20T10:54:22;20.80;;;15.40;;
6665;SDS011;3369;49.906;8.598;2022-12-20T10:56:54;18.93;;;14.20;;
6665;SDS011;3369;49.906;8.598;2022-12-20T10:59:28;21.17;;;15.80;;
6665;SDS011;3369;49.906;8.598;2022-12-20T11:02:01;19.67;;;14.67;;
6665;SDS011;3369;49.906;8.598;2022-12-20T11:07:58;21.17;;;15.63;;
6665;SDS011;3369;49.906;8.598;2022-12-20T11:10:31;22.03;;;15.13;;
6665;SDS011;3369;49.906;8.598;2022-12-20T11:13:01;18.23;;;13.17;;
6665;SDS011;3369;49.906;8.598;2022-12-20T11:15:29;20.73;;;14.57;;
6665;SDS011;3369;49.906;8.598;2022-12-20T11:18:07;19.07;;;14.37;;
6665;SDS011;3369;49.906;8.598;2022-12-20T11:20:39;19.70;;;14.73;;
6665;SDS011;3369;49.906;8.598;2022-12-20T11:29:09;20.93;;;15.83;;
6665;SDS011;3369;49.906;8.598;2022-12-20T11:31:59;17.67;;;13.37;;
6665;SDS011;3369;49.906;8.598;2022-12-20T11:37:45;17.40;;;13.57;;
6665;SDS011;3369;49.906;8.598;2022-12-20T11:51:41;18.83;;;13.77;;
6665;SDS011;3369;49.906;8.598;2022-12-20T11:54:31;17.80;;;13.47;;
6665;SDS011;3369;49.906;8.598;2022-12-20T11:57:03;16.77;;;12.20;;
6665;SDS011;3369;49.906;8.598;2022-12-20T11:59:37;17.23;;;12.70;;
6665;SDS011;3369;49.906;8.598;2022-12-20T12:02:27;15.27;;;12.30;;
6665;SDS011;3369;49.906;8.598;2022-12-20T12:05:21;14.80;;;10.80;;
6665;SDS011;3369;49.906;8.598;2022-12-20T12:07:58;16.73;;;12.50;;
6665;SDS011;3369;49.906;8.598;2022-12-20T12:10:33;15.90;;;12.63;;
6665;SDS011;3369;49.906;8.598;2022-12-20T12:13:13;15.27;;;12.93;;
6665;SDS011;3369;49.906;8.598;2022-12-20T12:16:08;17.17;;;12.93;;
6665;SDS011;3369;49.906;8.598;2022-12-20T12:18:40;19.73;;;13.70;;
6665;SDS011;3369;49.906;8.598;2022-12-20T12:21:22;18.70;;;14.50;;
6665;SDS011;3369;49.906;8.598;2022-12-20T12:24:12;19.33;;;14.20;;
6665;SDS011;3369;49.906;8.598;2022-12-20T12:26:50;18.07;;;13.10;;
6665;SDS011;3369;49.906;8.598;2022-12-20T12:29:17;14.70;;;11.90;;
6665;SDS011;3369;49.906;8.598;2022-12-20T12:31:52;16.67;;;11.57;;
6665;SDS011;3369;49.906;8.598;2022-12-20T12:39:35;14.77;;;10.93;;
6665;SDS011;3369;49.906;8.598;2022-12-20T12:45:02;14.77;;;10.63;;
6665;SDS011;3369;49.906;8.598;2022-12-20T12:47:46;15.63;;;11.23;;
6665;SDS011;3369;49.906;8.598;2022-12-20T12:50:25;11.57;;;10.27;;
6665;SDS011;3369;49.906;8.598;2022-12-20T12:52:55;15.13;;;11.17;;
6665;SDS011;3369;49.906;8.598;2022-12-20T12:58:14;17.97;;;13.70;;
6665;SDS011;3369;49.906;8.598;2022-12-20T13:00:56;20.30;;;14.40;;
6665;SDS011;3369;49.906;8.598;2022-12-20T13:03:43;20.90;;;15.10;;
6665;SDS011;3369;49.906;8.598;2022-12-20T13:11:29;22.77;;;15.80;;
6665;SDS011;3369;49.906;8.598;2022-12-20T13:14:45;20.73;;;14.47;;
6665;SDS011;3369;49.906;8.598;2022-12-20T13:16:49;18.47;;;14.60;;
6665;SDS011;3369;49.906;8.598;2022-12-20T13:19:37;18.37;;;14.63;;
6665;SDS011;3369;49.906;8.598;2022-12-20T13:24:53;19.83;;;16.53;;
6665;SDS011;3369;49.906;8.598;2022-12-20T13:30:29;20.93;;;16.40;;
6665;SDS011;3369;49.906;8.598;2022-12-20T13:45:52;24.90;;;18.00;;
6665;SDS011;3369;49.906;8.598;2022-12-20T13:48:24;20.73;;;16.23;;
6665;SDS011;3369;49.906;8.598;2022-12-20T13:51:15;22.00;;;16.70;;
6665;SDS011;3369;49.906;8.598;2022-12-20T13:53:53;19.17;;;14.97;;
6665;SDS011;3369;49.906;8.598;2022-12-20T13:59:03;19.27;;;14.97;;
6665;SDS011;3369;49.906;8.598;2022-12-20T14:01:32;17.90;;;13.87;;
6665;SDS011;3369;49.906;8.598;2022-12-20T14:04:01;16.70;;;13.23;;
6665;SDS011;3369;49.906;8.598;2022-12-20T14:06:34;18.97;;;14.07;;
6665;SDS011;3369;49.906;8.598;2022-12-20T14:09:00;19.00;;;14.10;;
6665;SDS011;3369;49.906;8.598;2022-12-20T14:11:26;16.23;;;12.93;;
6665;SDS011;3369;49.906;8.598;2022-12-20T14:13:53;16.50;;;13.77;;
6665;SDS011;3369;49.906;8.598;2022-12-20T14:16:31;20.03;;;14.20;;
6665;SDS011;3369;49.906;8.598;2022-12-20T14:19:01;19.13;;;14.37;;
6665;SDS011;3369;49.906;8.598;2022-12-20T14:21:33;19.03;;;14.13;;
6665;SDS011;3369;49.906;8.598;2022-12-20T14:24:00;17.67;;;13.30;;
6665;SDS011;3369;49.906;8.598;2022-12-20T14:26:28;15.83;;;13.07;;
6665;SDS011;3369;49.906;8.598;2022-12-20T14:28:58;19.00;;;14.37;;
6665;SDS011;3369;49.906;8.598;2022-12-20T14:31:27;15.80;;;13.23;;
6665;SDS011;3369;49.906;8.598;2022-12-20T14:57:47;14.47;;;12.50;;
6665;SDS011;3369;49.906;8.598;2022-12-20T15:08:09;17.00;;;12.10;;
6665;SDS011;3369;49.906;8.598;2022-12-20T15:10:36;15.17;;;13.13;;
6665;SDS011;3369;49.906;8.598;2022-12-20T15:13:02;14.53;;;11.70;;
6665;SDS011;3369;49.906;8.598;2022-12-20T15:15:28;13.97;;;12.43;;
6665;SDS011;3369;49.906;8.598;2022-12-20T15:17:54;15.07;;;11.67;;
6665;SDS011;3369;49.906;8.598;2022-12-20T15:20:20;14.13;;;11.60;;
6665;SDS011;3369;49.906;8.598;2022-12-20T15:22:46;14.93;;;11.10;;
6665;SDS011;3369;49.906;8.598;2022-12-20T15:25:14;13.17;;;11.03;;
6665;SDS011;3369;49.906;8.598;2022-12-20T15:27:41;12.40;;;10.83;;
6665;SDS011;3369;49.906;8.598;2022-12-20T15:30:10;13.70;;;10.57;;
6665;SDS011;3369;49.906;8.598;2022-12-20T15:32:40;14.00;;;11.03;;
6665;SDS011;3369;49.906;8.598;2022-12-20T15:35:13;13.27;;;11.53;;
6665;SDS011;3369;49.906;8.598;2022-12-20T15:37:39;12.93;;;10.97;;
6665;SDS011;3369;49.906;8.598;2022-12-20T15:40:05;15.20;;;11.80;;
6665;SDS011;3369;49.906;8.598;2022-12-20T15:42:34;19.33;;;14.03;;
6665;SDS011;3369;49.906;8.598;2022-12-20T15:45:00;17.80;;;14.17;;
6665;SDS011;3369;49.906;8.598;2022-12-20T15:47:26;18.67;;;15.00;;
6665;SDS011;3369;49.906;8.598;2022-12-20T15:49:51;17.27;;;13.80;;
6665;SDS011;3369;49.906;8.598;2022-12-20T15:52:18;15.47;;;13.07;;
6665;SDS011;3369;49.906;8.598;2022-12-20T15:54:45;18.20;;;13.73;;
6665;SDS011;3369;49.906;8.598;2022-12-20T15:57:11;18.47;;;14.37;;
6665;SDS011;3369;49.906;8.598;2022-12-20T15:59:38;19.10;;;14.83;;
6665;SDS011;3369;49.906;8.598;2022-12-20T16:02:21;20.50;;;15.00;;
6665;SDS011;3369;49.906;8.598;2022-12-20T16:04:49;19.17;;;15.03;;
6665;SDS011;3369;49.906;8.598;2022-12-20T16:07:15;19.57;;;14.73;;
6665;SDS011;3369;49.906;8.598;2022-12-20T16:09:41;21.57;;;16.10;;
6665;SDS011;3369;49.906;8.598;2022-12-20T16:12:10;20.47;;;15.20;;
6665;SDS011;3369;49.906;8.598;2022-12-20T16:14:40;21.37;;;15.70;;
6665;SDS011;3369;49.906;8.598;2022-12-20T16:17:09;20.47;;;15.03;;
6665;SDS011;3369;49.906;8.598;2022-12-20T16:19:40;21.87;;;14.73;;
6665;SDS011;3369;49.906;8.598;2022-12-20T16:22:13;22.23;;;16.97;;
6665;SDS011;3369;49.906;8.598;2022-12-20T16:24:40;19.70;;;15.30;;
6665;SDS011;3369;49.906;8.598;2022-12-20T16:27:06;22.73;;;16.73;;
6665;SDS011;3369;49.906;8.598;2022-12-20T16:29:31;22.13;;;16.23;;
6665;SDS011;3369;49.906;8.598;2022-12-20T16:31:57;18.73;;;15.40;;
6665;SDS011;3369;49.906;8.598;2022-12-20T16:34:24;20.40;;;15.37;;
6665;SDS011;3369;49.906;8.598;2022-12-20T16:36:50;19.87;;;14.67;;
6665;SDS011;3369;49.906;8.598;2022-12-20T16:39:16;16.57;;;13.33;;
6665;SDS011;3369;49.906;8.598;2022-12-20T16:41:41;19.57;;;13.77;;
6665;SDS011;3369;49.906;8.598;2022-12-20T16:44:12;18.17;;;13.43;;
6665;SDS011;3369;49.906;8.598;2022-12-20T16:46:39;18.07;;;13.17;;
6665;SDS011;3369;49.906;8.598;2022-12-20T16:49:04;18.33;;;14.00;;
6665;SDS011;3369;49.906;8.598;2022-12-20T16:51:32;22.87;;;15.20;;
6665;SDS011;3369;49.906;8.598;2022-12-20T16:54:10;19.33;;;14.70;;
6665;SDS011;3369;49.906;8.598;2022-12-20T16:56:40;19.70;;;14.17;;
6665;SDS011;3369;49.906;8.598;2022-12-20T16:59:06;19.40;;;14.37;;
6665;SDS011;3369;49.906;8.598;2022-12-20T17:01:33;17.10;;;13.13;;
6665;SDS011;3369;49.906;8.598;2022-12-20T17:04:01;15.70;;;12.10;;
6665;SDS011;3369;49.906;8.598;2022-12-20T17:06:28;15.77;;;12.13;;
6665;SDS011;3369;49.906;8.598;2022-12-20T17:08:53;14.77;;;12.27;;
6665;SDS011;3369;49.906;8.598;2022-12-20T17:11:24;18.07;;;13.47;;
6665;SDS011;3369;49.906;8.598;2022-12-20T17:13:52;20.40;;;14.93;;
6665;SDS011;3369;49.906;8.598;2022-12-20T17:16:20;17.83;;;13.93;;
6665;SDS011;3369;49.906;8.598;2022-12-20T17:18:47;18.00;;;13.47;;
6665;SDS011;3369;49.906;8.598;2022-12-20T17:23:48;19.97;;;14.17;;